sensor_id;sensor_type;location;lat;lon;timestamp;temperature;humidity
74081;SHT31;62438;52.228;6.864;2022-12-18T00:01:57;-7.32;99.99
74081;SHT31;62438;52.228;6.864;2022-12-18T00:04:00;-7.33;99.99
74081;SHT31;62438;52.228;6.864;2022-12-18T00:06:01;-7.44;99.99
74081;SHT31;62438;52.228;6.864;2022-12-18T00:08:02;-7.44;99.99
74081;SHT31;62438;52.228;6.864;2022-12-18T00:10:03;-7.42;99.99
74081;SHT31;62438;52.228;6.864;2022-12-18T00:12:04;-7.32;99.99
74081;SHT31;62438;52.228;6.864;2022-12-18T00:14:04;-7.33;99.99
74081;SHT31;62438;52.228;6.864;2022-12-18T00:16:07;-7.23;99.99
74081;SHT31;62438;52.228;6.864;2022-12-18T00:18:09;-7.22;99.99
74081;SHT31;62438;52.228;6.864;2022-12-18T00:20:10;-7.27;99.99
74081;SHT31;62438;52.228;6.864;2022-12-18T00:22:10;-7.36;99.99
74081;SHT31;62438;52.228;6.864;2022-12-18T00:24:11;-7.33;99.99
74081;SHT31;62438;52.228;6.864;2022-12-18T00:26:20;-7.30;99.99
74081;SHT31;62438;52.228;6.864;2022-12-18T00:28:22;-7.34;99.99
74081;SHT31;62438;52.228;6.864;2022-12-18T00:30:22;-7.37;99.99
74081;SHT31;62438;52.228;6.864;2022-12-18T00:32:22;-7.46;99.99
74081;SHT31;62438;52.228;6.864;2022-12-18T00:34:23;-7.53;99.99
74081;SHT31;62438;52.228;6.864;2022-12-18T00:36:26;-7.53;99.99
74081;SHT31;62438;52.228;6.864;2022-12-18T00:38:27;-7.39;99.99
74081;SHT31;62438;52.228;6.864;2022-12-18T00:40:27;-7.36;99.99
74081;SHT31;62438;52.228;6.864;2022-12-18T00:42:27;-7.39;99.99
74081;SHT31;62438;52.228;6.864;2022-12-18T00:44:46;-7.33;99.99
74081;SHT31;62438;52.228;6.864;2022-12-18T00:46:47;-7.33;99.99
74081;SHT31;62438;52.228;6.864;2022-12-18T00:48:51;-7.26;99.99
74081;SHT31;62438;52.228;6.864;2022-12-18T00:50:51;-7.19;99.99
74081;SHT31;62438;52.228;6.864;2022-12-18T00:52:52;-7.24;99.99
74081;SHT31;62438;52.228;6.864;2022-12-18T00:54:52;-7.18;99.99
74081;SHT31;62438;52.228;6.864;2022-12-18T00:56:52;-7.08;99.99
74081;SHT31;62438;52.228;6.864;2022-12-18T00:58:55;-7.03;99.99
74081;SHT31;62438;52.228;6.864;2022-12-18T01:00:55;-7.02;99.99
74081;SHT31;62438;52.228;6.864;2022-12-18T01:02:56;-7.11;99.99
74081;SHT31;62438;52.228;6.864;2022-12-18T01:04:56;-6.93;99.99
74081;SHT31;62438;52.228;6.864;2022-12-18T01:06:57;-6.87;99.99
74081;SHT31;62438;52.228;6.864;2022-12-18T01:08:58;-6.78;99.99
74081;SHT31;62438;52.228;6.864;2022-12-18T01:10:58;-6.74;99.99
74081;SHT31;62438;52.228;6.864;2022-12-18T01:12:59;-6.78;99.99
74081;SHT31;62438;52.228;6.864;2022-12-18T01:14:59;-6.80;99.99
74081;SHT31;62438;52.228;6.864;2022-12-18T01:16:59;-6.82;99.99
74081;SHT31;62438;52.228;6.864;2022-12-18T01:19:02;-6.84;99.99
74081;SHT31;62438;52.228;6.864;2022-12-18T01:21:12;-6.77;99.82
74081;SHT31;62438;52.228;6.864;2022-12-18T01:23:12;-6.77;99.72
74081;SHT31;62438;52.228;6.864;2022-12-18T01:25:13;-6.80;99.91
74081;SHT31;62438;52.228;6.864;2022-12-18T01:27:13;-6.81;99.85
74081;SHT31;62438;52.228;6.864;2022-12-18T01:29:14;-6.84;99.56
74081;SHT31;62438;52.228;6.864;2022-12-18T01:31:28;-6.80;99.79
74081;SHT31;62438;52.228;6.864;2022-12-18T01:33:29;-6.77;99.53
74081;SHT31;62438;52.228;6.864;2022-12-18T01:35:29;-6.75;99.31
74081;SHT31;62438;52.228;6.864;2022-12-18T01:37:30;-6.72;98.94
74081;SHT31;62438;52.228;6.864;2022-12-18T01:39:31;-6.74;99.20
74081;SHT31;62438;52.228;6.864;2022-12-18T01:41:33;-6.72;98.98
74081;SHT31;62438;52.228;6.864;2022-12-18T01:45:53;-6.65;98.76
74081;SHT31;62438;52.228;6.864;2022-12-18T01:48:02;-6.65;98.84
74081;SHT31;62438;52.228;6.864;2022-12-18T01:52:19;-6.64;98.91
74081;SHT31;62438;52.228;6.864;2022-12-18T01:54:20;-6.51;98.46
74081;SHT31;62438;52.228;6.864;2022-12-18T01:56:21;-6.47;98.37
74081;SHT31;62438;52.228;6.864;2022-12-18T01:58:29;-6.43;97.92
74081;SHT31;62438;52.228;6.864;2022-12-18T02:00:30;-6.38;97.70
74081;SHT31;62438;52.228;6.864;2022-12-18T02:02:31;-6.36;98.04
74081;SHT31;62438;52.228;6.864;2022-12-18T02:04:31;-6.30;97.30
74081;SHT31;62438;52.228;6.864;2022-12-18T02:06:39;-6.34;97.62
74081;SHT31;62438;52.228;6.864;2022-12-18T02:14:32;-6.44;98.10
74081;SHT31;62438;52.228;6.864;2022-12-18T02:18:12;-6.53;97.95
74081;SHT31;62438;52.228;6.864;2022-12-18T02:27:08;-6.75;98.14
74081;SHT31;62438;52.228;6.864;2022-12-18T02:29:35;-6.85;98.57
74081;SHT31;62438;52.228;6.864;2022-12-18T02:31:43;-6.93;98.83
74081;SHT31;62438;52.228;6.864;2022-12-18T02:33:45;-6.87;99.07
74081;SHT31;62438;52.228;6.864;2022-12-18T02:35:48;-6.91;99.25
74081;SHT31;62438;52.228;6.864;2022-12-18T02:37:49;-6.92;99.26
74081;SHT31;62438;52.228;6.864;2022-12-18T02:39:56;-6.99;98.97
74081;SHT31;62438;52.228;6.864;2022-12-18T02:41:58;-6.89;98.98
74081;SHT31;62438;52.228;6.864;2022-12-18T02:44:06;-6.91;98.52
74081;SHT31;62438;52.228;6.864;2022-12-18T02:46:36;-6.87;98.79
74081;SHT31;62438;52.228;6.864;2022-12-18T02:48:37;-6.84;98.56
74081;SHT31;62438;52.228;6.864;2022-12-18T02:50:45;-6.81;98.76
74081;SHT31;62438;52.228;6.864;2022-12-18T02:53:22;-6.77;98.44
74081;SHT31;62438;52.228;6.864;2022-12-18T02:58:06;-6.58;97.73
74081;SHT31;62438;52.228;6.864;2022-12-18T03:00:29;-6.61;97.47
74081;SHT31;62438;52.228;6.864;2022-12-18T03:02:51;-6.58;97.01
74081;SHT31;62438;52.228;6.864;2022-12-18T03:07:04;-6.77;97.25
74081;SHT31;62438;52.228;6.864;2022-12-18T03:09:11;-6.77;97.66
74081;SHT31;62438;52.228;6.864;2022-12-18T03:11:14;-6.80;97.87
74081;SHT31;62438;52.228;6.864;2022-12-18T03:13:27;-6.77;97.48
74081;SHT31;62438;52.228;6.864;2022-12-18T03:15:31;-6.91;97.59
74081;SHT31;62438;52.228;6.864;2022-12-18T03:17:34;-6.98;97.68
74081;SHT31;62438;52.228;6.864;2022-12-18T03:19:35;-7.01;97.85
74081;SHT31;62438;52.228;6.864;2022-12-18T03:21:51;-6.96;97.65
74081;SHT31;62438;52.228;6.864;2022-12-18T03:23:54;-7.06;97.63
74081;SHT31;62438;52.228;6.864;2022-12-18T03:25:58;-7.13;98.35
74081;SHT31;62438;52.228;6.864;2022-12-18T03:28:01;-7.18;98.35
74081;SHT31;62438;52.228;6.864;2022-12-18T03:30:05;-7.13;98.54
74081;SHT31;62438;52.228;6.864;2022-12-18T03:32:12;-7.15;98.43
74081;SHT31;62438;52.228;6.864;2022-12-18T03:34:19;-7.15;98.68
74081;SHT31;62438;52.228;6.864;2022-12-18T03:36:22;-7.09;98.29
74081;SHT31;62438;52.228;6.864;2022-12-18T03:38:23;-7.22;98.31
74081;SHT31;62438;52.228;6.864;2022-12-18T03:40:28;-7.29;98.48
74081;SHT31;62438;52.228;6.864;2022-12-18T03:47:16;-7.20;98.49
74081;SHT31;62438;52.228;6.864;2022-12-18T03:49:33;-7.20;98.29
74081;SHT31;62438;52.228;6.864;2022-12-18T03:51:50;-7.26;98.75
74081;SHT31;62438;52.228;6.864;2022-12-18T03:53:58;-7.19;99.20
74081;SHT31;62438;52.228;6.864;2022-12-18T03:56:00;-7.08;98.92
74081;SHT31;62438;52.228;6.864;2022-12-18T03:58:03;-7.09;98.69
74081;SHT31;62438;52.228;6.864;2022-12-18T04:00:11;-7.11;98.54
74081;SHT31;62438;52.228;6.864;2022-12-18T04:02:12;-7.01;97.88
74081;SHT31;62438;52.228;6.864;2022-12-18T04:04:15;-6.98;98.13
74081;SHT31;62438;52.228;6.864;2022-12-18T04:06:16;-6.98;98.28
74081;SHT31;62438;52.228;6.864;2022-12-18T04:08:18;-7.01;97.82
74081;SHT31;62438;52.228;6.864;2022-12-18T04:10:19;-6.93;97.80
74081;SHT31;62438;52.228;6.864;2022-12-18T04:12:19;-6.95;97.82
74081;SHT31;62438;52.228;6.864;2022-12-18T04:14:20;-6.77;97.31
74081;SHT31;62438;52.228;6.864;2022-12-18T04:16:20;-6.60;96.94
74081;SHT31;62438;52.228;6.864;2022-12-18T04:18:20;-6.44;96.45
74081;SHT31;62438;52.228;6.864;2022-12-18T04:20:21;-6.45;96.13
74081;SHT31;62438;52.228;6.864;2022-12-18T04:22:21;-6.47;96.61
74081;SHT31;62438;52.228;6.864;2022-12-18T04:24:22;-6.38;96.75
74081;SHT31;62438;52.228;6.864;2022-12-18T04:26:22;-6.34;96.01
74081;SHT31;62438;52.228;6.864;2022-12-18T04:28:23;-6.36;96.17
74081;SHT31;62438;52.228;6.864;2022-12-18T04:30:24;-6.32;96.06
74081;SHT31;62438;52.228;6.864;2022-12-18T04:32:24;-6.41;96.32
74081;SHT31;62438;52.228;6.864;2022-12-18T04:34:25;-6.48;96.72
74081;SHT31;62438;52.228;6.864;2022-12-18T04:36:25;-6.41;96.64
74081;SHT31;62438;52.228;6.864;2022-12-18T04:38:25;-6.45;96.97
74081;SHT31;62438;52.228;6.864;2022-12-18T04:40:26;-6.53;97.07
74081;SHT31;62438;52.228;6.864;2022-12-18T04:42:26;-6.50;96.97
74081;SHT31;62438;52.228;6.864;2022-12-18T04:44:27;-6.43;96.64
74081;SHT31;62438;52.228;6.864;2022-12-18T04:46:27;-6.44;96.87
74081;SHT31;62438;52.228;6.864;2022-12-18T04:48:27;-6.30;96.31
74081;SHT31;62438;52.228;6.864;2022-12-18T04:50:28;-6.23;96.36
74081;SHT31;62438;52.228;6.864;2022-12-18T04:52:28;-6.26;95.86
74081;SHT31;62438;52.228;6.864;2022-12-18T04:54:29;-6.23;95.75
74081;SHT31;62438;52.228;6.864;2022-12-18T04:56:31;-6.17;95.67
74081;SHT31;62438;52.228;6.864;2022-12-18T04:58:31;-6.24;96.05
74081;SHT31;62438;52.228;6.864;2022-12-18T05:00:32;-6.32;96.36
74081;SHT31;62438;52.228;6.864;2022-12-18T05:02:32;-6.20;96.42
74081;SHT31;62438;52.228;6.864;2022-12-18T05:04:33;-6.13;96.07
74081;SHT31;62438;52.228;6.864;2022-12-18T05:06:33;-6.10;95.97
74081;SHT31;62438;52.228;6.864;2022-12-18T05:08:34;-6.10;95.71
74081;SHT31;62438;52.228;6.864;2022-12-18T05:10:34;-6.09;95.77
74081;SHT31;62438;52.228;6.864;2022-12-18T05:12:35;-6.06;95.31
74081;SHT31;62438;52.228;6.864;2022-12-18T05:14:55;-6.20;96.20
74081;SHT31;62438;52.228;6.864;2022-12-18T05:16:55;-6.20;96.16
74081;SHT31;62438;52.228;6.864;2022-12-18T05:18:56;-6.22;95.96
74081;SHT31;62438;52.228;6.864;2022-12-18T05:20:57;-6.22;95.84
74081;SHT31;62438;52.228;6.864;2022-12-18T05:22:57;-6.24;95.98
74081;SHT31;62438;52.228;6.864;2022-12-18T05:24:58;-6.14;95.63
74081;SHT31;62438;52.228;6.864;2022-12-18T05:26:58;-6.13;95.56
74081;SHT31;62438;52.228;6.864;2022-12-18T05:28:58;-6.13;95.40
74081;SHT31;62438;52.228;6.864;2022-12-18T05:31:00;-6.10;95.25
74081;SHT31;62438;52.228;6.864;2022-12-18T05:33:02;-6.20;95.62
74081;SHT31;62438;52.228;6.864;2022-12-18T05:35:04;-6.13;95.42
74081;SHT31;62438;52.228;6.864;2022-12-18T05:37:05;-6.13;95.63
74081;SHT31;62438;52.228;6.864;2022-12-18T05:39:05;-6.19;95.75
74081;SHT31;62438;52.228;6.864;2022-12-18T05:41:07;-6.23;95.98
74081;SHT31;62438;52.228;6.864;2022-12-18T05:43:07;-6.20;96.00
74081;SHT31;62438;52.228;6.864;2022-12-18T05:45:08;-6.27;96.22
74081;SHT31;62438;52.228;6.864;2022-12-18T05:47:08;-6.14;95.83
74081;SHT31;62438;52.228;6.864;2022-12-18T05:49:09;-6.24;96.01
74081;SHT31;62438;52.228;6.864;2022-12-18T05:51:12;-6.29;95.99
74081;SHT31;62438;52.228;6.864;2022-12-18T05:53:15;-6.20;95.70
74081;SHT31;62438;52.228;6.864;2022-12-18T05:55:16;-6.24;95.81
74081;SHT31;62438;52.228;6.864;2022-12-18T05:57:17;-6.16;95.68
74081;SHT31;62438;52.228;6.864;2022-12-18T05:59:17;-6.24;95.80
74081;SHT31;62438;52.228;6.864;2022-12-18T06:01:21;-6.33;96.44
74081;SHT31;62438;52.228;6.864;2022-12-18T06:03:21;-6.43;96.78
74081;SHT31;62438;52.228;6.864;2022-12-18T06:05:22;-6.60;96.89
74081;SHT31;62438;52.228;6.864;2022-12-18T06:07:22;-6.71;97.27
74081;SHT31;62438;52.228;6.864;2022-12-18T06:09:22;-6.81;97.59
74081;SHT31;62438;52.228;6.864;2022-12-18T06:11:25;-6.74;98.10
74081;SHT31;62438;52.228;6.864;2022-12-18T06:13:25;-6.61;97.85
74081;SHT31;62438;52.228;6.864;2022-12-18T06:15:26;-6.58;97.70
74081;SHT31;62438;52.228;6.864;2022-12-18T06:17:33;-6.60;97.80
74081;SHT31;62438;52.228;6.864;2022-12-18T06:19:33;-6.57;97.53
74081;SHT31;62438;52.228;6.864;2022-12-18T06:21:34;-6.47;97.29
74081;SHT31;62438;52.228;6.864;2022-12-18T06:23:34;-6.50;96.91
74081;SHT31;62438;52.228;6.864;2022-12-18T06:25:37;-6.45;96.62
74081;SHT31;62438;52.228;6.864;2022-12-18T06:27:38;-6.44;96.47
74081;SHT31;62438;52.228;6.864;2022-12-18T06:29:38;-6.48;96.49
74081;SHT31;62438;52.228;6.864;2022-12-18T06:31:39;-6.48;96.78
74081;SHT31;62438;52.228;6.864;2022-12-18T06:33:39;-6.54;96.56
74081;SHT31;62438;52.228;6.864;2022-12-18T06:35:40;-6.64;96.94
74081;SHT31;62438;52.228;6.864;2022-12-18T06:37:41;-6.72;97.33
74081;SHT31;62438;52.228;6.864;2022-12-18T06:39:41;-6.84;97.51
74081;SHT31;62438;52.228;6.864;2022-12-18T06:41:42;-6.98;97.59
74081;SHT31;62438;52.228;6.864;2022-12-18T06:43:42;-7.08;98.03
74081;SHT31;62438;52.228;6.864;2022-12-18T06:45:43;-7.16;98.14
74081;SHT31;62438;52.228;6.864;2022-12-18T06:47:43;-7.24;98.41
74081;SHT31;62438;52.228;6.864;2022-12-18T06:49:44;-7.30;98.34
74081;SHT31;62438;52.228;6.864;2022-12-18T06:51:44;-7.30;98.50
74081;SHT31;62438;52.228;6.864;2022-12-18T06:53:45;-7.32;98.70
74081;SHT31;62438;52.228;6.864;2022-12-18T06:55:45;-7.33;98.82
74081;SHT31;62438;52.228;6.864;2022-12-18T06:57:45;-7.42;98.80
74081;SHT31;62438;52.228;6.864;2022-12-18T06:59:46;-7.36;99.04
74081;SHT31;62438;52.228;6.864;2022-12-18T07:01:46;-7.34;98.92
74081;SHT31;62438;52.228;6.864;2022-12-18T07:03:51;-7.27;99.12
74081;SHT31;62438;52.228;6.864;2022-12-18T07:05:53;-7.22;98.87
74081;SHT31;62438;52.228;6.864;2022-12-18T07:07:53;-7.18;98.71
74081;SHT31;62438;52.228;6.864;2022-12-18T07:09:53;-7.13;98.71
74081;SHT31;62438;52.228;6.864;2022-12-18T07:11:54;-7.11;98.39
74081;SHT31;62438;52.228;6.864;2022-12-18T07:13:54;-7.11;98.34
74081;SHT31;62438;52.228;6.864;2022-12-18T07:15:55;-7.13;98.61
74081;SHT31;62438;52.228;6.864;2022-12-18T07:17:55;-7.13;98.57
74081;SHT31;62438;52.228;6.864;2022-12-18T07:19:55;-6.99;98.61
74081;SHT31;62438;52.228;6.864;2022-12-18T07:21:56;-7.01;98.44
74081;SHT31;62438;52.228;6.864;2022-12-18T07:23:56;-6.96;98.38
74081;SHT31;62438;52.228;6.864;2022-12-18T07:26:01;-6.93;98.16
74081;SHT31;62438;52.228;6.864;2022-12-18T07:28:02;-6.87;97.97
74081;SHT31;62438;52.228;6.864;2022-12-18T07:30:03;-6.91;97.90
74081;SHT31;62438;52.228;6.864;2022-12-18T07:32:04;-6.92;97.92
74081;SHT31;62438;52.228;6.864;2022-12-18T07:34:04;-6.98;98.03
74081;SHT31;62438;52.228;6.864;2022-12-18T07:36:06;-6.85;98.35
74081;SHT31;62438;52.228;6.864;2022-12-18T07:38:07;-6.82;98.11
74081;SHT31;62438;52.228;6.864;2022-12-18T07:40:08;-6.84;98.02
74081;SHT31;62438;52.228;6.864;2022-12-18T07:42:08;-6.77;97.60
74081;SHT31;62438;52.228;6.864;2022-12-18T07:44:27;-6.71;97.34
74081;SHT31;62438;52.228;6.864;2022-12-18T07:46:28;-6.60;97.01
74081;SHT31;62438;52.228;6.864;2022-12-18T07:48:29;-6.60;96.98
74081;SHT31;62438;52.228;6.864;2022-12-18T07:50:29;-6.63;97.05
74081;SHT31;62438;52.228;6.864;2022-12-18T07:52:30;-6.58;97.04
74081;SHT31;62438;52.228;6.864;2022-12-18T07:54:30;-6.55;97.05
74081;SHT31;62438;52.228;6.864;2022-12-18T07:56:30;-6.55;96.92
74081;SHT31;62438;52.228;6.864;2022-12-18T07:58:32;-6.53;96.89
74081;SHT31;62438;52.228;6.864;2022-12-18T08:00:34;-6.57;96.94
74081;SHT31;62438;52.228;6.864;2022-12-18T08:02:34;-6.50;97.31
74081;SHT31;62438;52.228;6.864;2022-12-18T08:04:35;-6.40;96.66
74081;SHT31;62438;52.228;6.864;2022-12-18T08:06:35;-6.40;96.86
74081;SHT31;62438;52.228;6.864;2022-12-18T08:08:36;-6.27;96.63
74081;SHT31;62438;52.228;6.864;2022-12-18T08:10:37;-6.14;96.50
74081;SHT31;62438;52.228;6.864;2022-12-18T08:12:38;-6.03;95.77
74081;SHT31;62438;52.228;6.864;2022-12-18T08:14:39;-5.99;95.80
74081;SHT31;62438;52.228;6.864;2022-12-18T08:16:39;-6.03;95.98
74081;SHT31;62438;52.228;6.864;2022-12-18T08:18:40;-5.99;95.73
74081;SHT31;62438;52.228;6.864;2022-12-18T08:20:40;-5.98;95.60
74081;SHT31;62438;52.228;6.864;2022-12-18T08:22:41;-5.93;95.73
74081;SHT31;62438;52.228;6.864;2022-12-18T08:24:42;-5.89;95.81
74081;SHT31;62438;52.228;6.864;2022-12-18T08:26:42;-5.78;95.57
74081;SHT31;62438;52.228;6.864;2022-12-18T08:28:43;-5.70;95.20
74081;SHT31;62438;52.228;6.864;2022-12-18T08:30:51;-5.57;94.43
74081;SHT31;62438;52.228;6.864;2022-12-18T08:32:52;-5.53;94.28
74081;SHT31;62438;52.228;6.864;2022-12-18T08:34:54;-5.51;94.53
74081;SHT31;62438;52.228;6.864;2022-12-18T08:36:54;-5.43;94.11
74081;SHT31;62438;52.228;6.864;2022-12-18T08:38:54;-5.43;93.62
74081;SHT31;62438;52.228;6.864;2022-12-18T08:40:59;-5.40;93.68
74081;SHT31;62438;52.228;6.864;2022-12-18T08:43:00;-5.37;93.47
74081;SHT31;62438;52.228;6.864;2022-12-18T08:45:19;-5.37;93.77
74081;SHT31;62438;52.228;6.864;2022-12-18T08:47:19;-5.33;93.52
74081;SHT31;62438;52.228;6.864;2022-12-18T08:49:20;-5.37;94.26
74081;SHT31;62438;52.228;6.864;2022-12-18T08:51:20;-5.33;93.58
74081;SHT31;62438;52.228;6.864;2022-12-18T08:53:20;-5.31;93.51
74081;SHT31;62438;52.228;6.864;2022-12-18T08:55:21;-5.30;93.85
74081;SHT31;62438;52.228;6.864;2022-12-18T08:57:21;-5.28;93.65
74081;SHT31;62438;52.228;6.864;2022-12-18T08:59:22;-5.23;93.45
74081;SHT31;62438;52.228;6.864;2022-12-18T09:01:23;-5.19;93.42
74081;SHT31;62438;52.228;6.864;2022-12-18T09:03:24;-5.09;92.59
74081;SHT31;62438;52.228;6.864;2022-12-18T09:05:24;-4.97;92.31
74081;SHT31;62438;52.228;6.864;2022-12-18T09:07:25;-4.88;91.98
74081;SHT31;62438;52.228;6.864;2022-12-18T09:09:25;-4.81;92.64
74081;SHT31;62438;52.228;6.864;2022-12-18T09:11:28;-4.72;91.77
74081;SHT31;62438;52.228;6.864;2022-12-18T09:13:28;-4.66;92.08
74081;SHT31;62438;52.228;6.864;2022-12-18T09:15:29;-4.54;91.63
74081;SHT31;62438;52.228;6.864;2022-12-18T09:17:30;-4.38;91.00
74081;SHT31;62438;52.228;6.864;2022-12-18T09:19:30;-4.31;91.22
74081;SHT31;62438;52.228;6.864;2022-12-18T09:21:33;-4.16;89.58
74081;SHT31;62438;52.228;6.864;2022-12-18T09:23:34;-4.17;89.90
74081;SHT31;62438;52.228;6.864;2022-12-18T09:25:35;-4.05;90.11
74081;SHT31;62438;52.228;6.864;2022-12-18T09:27:36;-4.03;89.93
74081;SHT31;62438;52.228;6.864;2022-12-18T09:29:37;-4.03;89.74
74081;SHT31;62438;52.228;6.864;2022-12-18T09:31:38;-4.03;90.36
74081;SHT31;62438;52.228;6.864;2022-12-18T09:33:39;-4.00;90.06
74081;SHT31;62438;52.228;6.864;2022-12-18T09:35:40;-3.90;89.95
74081;SHT31;62438;52.228;6.864;2022-12-18T09:37:41;-3.90;89.81
74081;SHT31;62438;52.228;6.864;2022-12-18T09:39:42;-3.81;89.84
74081;SHT31;62438;52.228;6.864;2022-12-18T09:41:46;-3.65;89.21
74081;SHT31;62438;52.228;6.864;2022-12-18T09:43:50;-3.59;89.03
74081;SHT31;62438;52.228;6.864;2022-12-18T09:45:55;-3.55;88.52
74081;SHT31;62438;52.228;6.864;2022-12-18T09:47:58;-3.52;89.29
74081;SHT31;62438;52.228;6.864;2022-12-18T09:50:02;-3.52;89.16
74081;SHT31;62438;52.228;6.864;2022-12-18T09:52:43;-3.48;89.23
74081;SHT31;62438;52.228;6.864;2022-12-18T09:54:38;-3.45;88.90
74081;SHT31;62438;52.228;6.864;2022-12-18T09:56:43;-3.35;88.83
74081;SHT31;62438;52.228;6.864;2022-12-18T09:58:46;-3.31;88.81
74081;SHT31;62438;52.228;6.864;2022-12-18T10:00:47;-3.33;88.71
74081;SHT31;62438;52.228;6.864;2022-12-18T10:02:50;-3.26;87.73
74081;SHT31;62438;52.228;6.864;2022-12-18T10:07:25;-3.26;87.97
74081;SHT31;62438;52.228;6.864;2022-12-18T10:14:21;-3.08;88.87
74081;SHT31;62438;52.228;6.864;2022-12-18T10:20:45;-3.00;87.79
74081;SHT31;62438;52.228;6.864;2022-12-18T10:27:21;-2.75;87.54
74081;SHT31;62438;52.228;6.864;2022-12-18T10:29:22;-2.70;87.34
74081;SHT31;62438;52.228;6.864;2022-12-18T10:31:24;-2.52;87.45
74081;SHT31;62438;52.228;6.864;2022-12-18T10:33:29;-2.52;86.44
74081;SHT31;62438;52.228;6.864;2022-12-18T10:35:30;-2.55;86.16
74081;SHT31;62438;52.228;6.864;2022-12-18T10:37:30;-2.42;85.80
74081;SHT31;62438;52.228;6.864;2022-12-18T10:39:30;-2.40;86.53
74081;SHT31;62438;52.228;6.864;2022-12-18T10:41:31;-2.38;85.45
74081;SHT31;62438;52.228;6.864;2022-12-18T10:43:39;-2.35;85.65
74081;SHT31;62438;52.228;6.864;2022-12-18T10:45:42;-2.27;86.06
74081;SHT31;62438;52.228;6.864;2022-12-18T10:47:46;-2.20;86.02
74081;SHT31;62438;52.228;6.864;2022-12-18T10:49:49;-2.18;85.05
74081;SHT31;62438;52.228;6.864;2022-12-18T10:51:51;-2.14;84.90
74081;SHT31;62438;52.228;6.864;2022-12-18T10:54:18;-2.08;84.62
74081;SHT31;62438;52.228;6.864;2022-12-18T10:56:21;-2.00;84.49
74081;SHT31;62438;52.228;6.864;2022-12-18T10:58:32;-2.01;83.73
74081;SHT31;62438;52.228;6.864;2022-12-18T11:00:33;-1.94;84.24
74081;SHT31;62438;52.228;6.864;2022-12-18T11:02:36;-1.94;84.22
74081;SHT31;62438;52.228;6.864;2022-12-18T11:04:50;-1.85;84.54
74081;SHT31;62438;52.228;6.864;2022-12-18T11:09:05;-1.86;83.79
74081;SHT31;62438;52.228;6.864;2022-12-18T11:11:21;-1.91;83.82
74081;SHT31;62438;52.228;6.864;2022-12-18T11:13:24;-1.91;84.31
74081;SHT31;62438;52.228;6.864;2022-12-18T11:15:29;-1.87;84.39
74081;SHT31;62438;52.228;6.864;2022-12-18T11:17:35;-1.86;83.31
74081;SHT31;62438;52.228;6.864;2022-12-18T11:19:39;-1.77;83.61
74081;SHT31;62438;52.228;6.864;2022-12-18T11:21:41;-1.69;83.88
74081;SHT31;62438;52.228;6.864;2022-12-18T11:24:00;-1.82;84.13
74081;SHT31;62438;52.228;6.864;2022-12-18T11:26:03;-1.80;84.54
74081;SHT31;62438;52.228;6.864;2022-12-18T11:28:05;-1.85;84.13
74081;SHT31;62438;52.228;6.864;2022-12-18T11:30:33;-1.69;84.29
74081;SHT31;62438;52.228;6.864;2022-12-18T11:32:37;-1.77;83.76
74081;SHT31;62438;52.228;6.864;2022-12-18T11:34:39;-1.80;83.42
74081;SHT31;62438;52.228;6.864;2022-12-18T11:36:44;-1.79;83.54
74081;SHT31;62438;52.228;6.864;2022-12-18T11:38:45;-1.73;83.32
74081;SHT31;62438;52.228;6.864;2022-12-18T11:43:15;-1.63;83.54
74081;SHT31;62438;52.228;6.864;2022-12-18T11:45:29;-1.65;83.61
74081;SHT31;62438;52.228;6.864;2022-12-18T11:49:49;-1.68;83.65
74081;SHT31;62438;52.228;6.864;2022-12-18T11:54:18;-1.59;82.20
74081;SHT31;62438;52.228;6.864;2022-12-18T11:56:35;-1.60;82.77
74081;SHT31;62438;52.228;6.864;2022-12-18T11:59:02;-1.59;82.66
74081;SHT31;62438;52.228;6.864;2022-12-18T12:01:48;-1.58;82.20
74081;SHT31;62438;52.228;6.864;2022-12-18T12:15:54;-1.24;81.40
74081;SHT31;62438;52.228;6.864;2022-12-18T12:22:18;-1.31;81.05
74081;SHT31;62438;52.228;6.864;2022-12-18T12:26:42;-1.27;81.65
74081;SHT31;62438;52.228;6.864;2022-12-18T12:29:14;-1.28;81.85
74081;SHT31;62438;52.228;6.864;2022-12-18T12:33:46;-1.32;81.93
74081;SHT31;62438;52.228;6.864;2022-12-18T12:40:17;-1.24;81.46
74081;SHT31;62438;52.228;6.864;2022-12-18T12:42:29;-1.17;80.99
74081;SHT31;62438;52.228;6.864;2022-12-18T12:44:58;-1.22;81.08
74081;SHT31;62438;52.228;6.864;2022-12-18T12:47:14;-1.19;81.53
74081;SHT31;62438;52.228;6.864;2022-12-18T12:49:18;-1.17;80.94
74081;SHT31;62438;52.228;6.864;2022-12-18T12:53:34;-1.18;81.05
74081;SHT31;62438;52.228;6.864;2022-12-18T12:55:36;-1.17;81.64
74081;SHT31;62438;52.228;6.864;2022-12-18T12:57:40;-1.05;81.28
74081;SHT31;62438;52.228;6.864;2022-12-18T13:00:09;-1.08;80.69
74081;SHT31;62438;52.228;6.864;2022-12-18T13:02:21;-1.15;81.42
74081;SHT31;62438;52.228;6.864;2022-12-18T13:07:01;-1.10;82.15
74081;SHT31;62438;52.228;6.864;2022-12-18T13:09:03;-1.01;81.64
74081;SHT31;62438;52.228;6.864;2022-12-18T13:11:35;-1.05;81.87
74081;SHT31;62438;52.228;6.864;2022-12-18T13:13:56;-1.12;81.75
74081;SHT31;62438;52.228;6.864;2022-12-18T13:16:05;-1.05;81.70
74081;SHT31;62438;52.228;6.864;2022-12-18T13:20:12;-1.05;82.28
74081;SHT31;62438;52.228;6.864;2022-12-18T13:22:31;-1.14;82.61
74081;SHT31;62438;52.228;6.864;2022-12-18T13:24:33;-1.17;82.70
74081;SHT31;62438;52.228;6.864;2022-12-18T13:26:34;-1.11;82.93
74081;SHT31;62438;52.228;6.864;2022-12-18T13:28:49;-1.12;82.83
74081;SHT31;62438;52.228;6.864;2022-12-18T13:31:08;-1.08;82.43
74081;SHT31;62438;52.228;6.864;2022-12-18T13:37:42;-1.11;82.96
74081;SHT31;62438;52.228;6.864;2022-12-18T13:39:43;-1.07;82.89
74081;SHT31;62438;52.228;6.864;2022-12-18T13:41:49;-1.18;83.09
74081;SHT31;62438;52.228;6.864;2022-12-18T13:43:54;-1.15;83.31
74081;SHT31;62438;52.228;6.864;2022-12-18T13:46:01;-1.19;83.39
74081;SHT31;62438;52.228;6.864;2022-12-18T13:48:04;-1.15;83.33
74081;SHT31;62438;52.228;6.864;2022-12-18T13:50:25;-1.18;83.77
74081;SHT31;62438;52.228;6.864;2022-12-18T13:52:26;-1.10;83.57
74081;SHT31;62438;52.228;6.864;2022-12-18T13:54:39;-1.15;83.72
74081;SHT31;62438;52.228;6.864;2022-12-18T13:56:45;-1.19;83.85
74081;SHT31;62438;52.228;6.864;2022-12-18T13:58:45;-1.11;83.82
74081;SHT31;62438;52.228;6.864;2022-12-18T14:00:46;-1.21;83.94
74081;SHT31;62438;52.228;6.864;2022-12-18T14:02:46;-1.21;83.92
74081;SHT31;62438;52.228;6.864;2022-12-18T14:04:48;-1.14;83.91
74081;SHT31;62438;52.228;6.864;2022-12-18T14:06:52;-1.11;83.95
74081;SHT31;62438;52.228;6.864;2022-12-18T14:08:53;-1.10;83.59
74081;SHT31;62438;52.228;6.864;2022-12-18T14:10:56;-1.14;84.01
74081;SHT31;62438;52.228;6.864;2022-12-18T14:13:03;-1.12;84.35
74081;SHT31;62438;52.228;6.864;2022-12-18T14:15:21;-1.18;84.38
74081;SHT31;62438;52.228;6.864;2022-12-18T14:17:25;-1.05;84.10
74081;SHT31;62438;52.228;6.864;2022-12-18T14:19:25;-1.00;83.99
74081;SHT31;62438;52.228;6.864;2022-12-18T14:21:28;-1.01;83.66
74081;SHT31;62438;52.228;6.864;2022-12-18T14:23:37;-1.08;84.16
74081;SHT31;62438;52.228;6.864;2022-12-18T14:25:38;-1.05;84.37
74081;SHT31;62438;52.228;6.864;2022-12-18T14:27:44;-0.98;84.02
74081;SHT31;62438;52.228;6.864;2022-12-18T14:29:45;-1.04;84.52
74081;SHT31;62438;52.228;6.864;2022-12-18T14:31:45;-1.08;84.32
74081;SHT31;62438;52.228;6.864;2022-12-18T14:33:46;-1.01;84.08